createdAt,value
2022-08-09T00:02:51.556Z,17.56
2022-08-09T00:06:18.064Z,17.54
2022-08-09T00:09:26.463Z,17.54
2022-08-09T00:12:44.323Z,17.49
2022-08-09T00:16:02.430Z,17.43
2022-08-09T00:19:20.651Z,17.38
2022-08-09T00:22:36.692Z,17.32
2022-08-09T00:25:54.820Z,17.30
2022-08-09T00:30:10.005Z,17.30
2022-08-09T00:32:30.309Z,17.31
2022-08-09T00:35:46.463Z,17.29
2022-08-09T00:39:04.731Z,17.27
2022-08-09T00:44:14.246Z,17.27
2022-08-09T00:45:39.210Z,17.28
2022-08-09T00:48:58.034Z,17.29
2022-08-09T00:52:17.628Z,17.28
2022-08-09T00:56:05.534Z,17.29
2022-08-09T00:58:54.283Z,17.27
2022-08-09T01:02:12.233Z,17.26
2022-08-09T01:05:53.725Z,17.24
2022-08-09T01:09:06.216Z,17.25
2022-08-09T01:12:29.313Z,17.24
2022-08-09T01:15:52.717Z,17.21
2022-08-09T01:19:40.156Z,17.17
2022-08-09T01:24:02.651Z,17.17
2022-08-09T01:27:13.331Z,17.13
2022-08-09T01:30:35.421Z,17.13
2022-08-09T01:33:54.695Z,17.11
2022-08-09T01:37:14.396Z,17.10
2022-08-09T01:40:36.220Z,17.09
2022-08-09T01:43:56.352Z,17.10
2022-08-09T01:47:17.416Z,17.09
2022-08-09T01:50:37.136Z,17.04
2022-08-09T01:53:53.774Z,17.05
2022-08-09T01:57:16.640Z,17.04
2022-08-09T02:00:35.819Z,17.01
2022-08-09T02:03:52.969Z,17.02
2022-08-09T02:08:36.088Z,17.03
2022-08-09T02:10:38.008Z,17.03
2022-08-09T02:14:07.737Z,17.01
2022-08-09T02:17:59.424Z,16.98
2022-08-09T02:20:36.881Z,16.97
2022-08-09T02:23:59.048Z,16.96
2022-08-09T02:27:20.172Z,16.93
2022-08-09T02:30:43.270Z,16.94
2022-08-09T02:34:13.788Z,16.93
2022-08-09T02:37:31.887Z,16.90
2022-08-09T02:40:49.337Z,16.88
2022-08-09T02:44:10.353Z,16.90
2022-08-09T02:47:27.302Z,16.85
2022-08-09T02:50:51.886Z,16.79
2022-08-09T02:54:10.578Z,16.74
2022-08-09T02:57:30.066Z,16.71
2022-08-09T03:00:58.408Z,16.64
2022-08-09T03:04:18.239Z,16.61
2022-08-09T03:07:30.230Z,16.58
2022-08-09T03:10:52.447Z,16.56
2022-08-09T03:14:10.069Z,16.53
2022-08-09T03:17:27.991Z,16.51
2022-08-09T03:20:45.038Z,16.52
2022-08-09T03:24:04.746Z,16.51
2022-08-09T03:27:22.190Z,16.50
2022-08-09T03:30:39.889Z,16.52
2022-08-09T03:34:02.566Z,16.48
2022-08-09T03:37:55.317Z,16.50
2022-08-09T03:40:37.678Z,16.60
2022-08-09T03:44:08.540Z,16.65
2022-08-09T03:47:14.727Z,16.70
2022-08-09T03:50:34.467Z,16.78
2022-08-09T03:53:53.535Z,16.85
2022-08-09T03:57:20.334Z,16.92
2022-08-09T04:00:35.348Z,16.98
2022-08-09T04:04:02.060Z,16.99
2022-08-09T04:07:12.262Z,17.01
2022-08-09T04:10:30.896Z,17.03
2022-08-09T04:14:54.055Z,17.03
2022-08-09T04:17:05.418Z,17.06
2022-08-09T04:20:23.239Z,17.10
2022-08-09T04:23:39.645Z,17.14
2022-08-09T04:26:56.021Z,17.19
2022-08-09T04:30:14.063Z,17.20
2022-08-09T04:33:32.502Z,17.22
2022-08-09T04:36:50.599Z,17.27
2022-08-09T04:40:06.894Z,17.29
2022-08-09T04:43:26.698Z,17.32
2022-08-09T04:46:58.220Z,17.38
2022-08-09T04:50:01.503Z,17.41
2022-08-09T04:53:17.706Z,17.44
2022-08-09T04:56:33.715Z,17.51
2022-08-09T04:59:51.308Z,17.61
2022-08-09T05:03:24.144Z,17.70
2022-08-09T05:06:29.092Z,17.78
2022-08-09T05:09:50.114Z,17.83
2022-08-09T05:13:03.958Z,17.91
2022-08-09T05:16:20.430Z,17.94
2022-08-09T05:19:44.888Z,17.99
2022-08-09T05:23:54.288Z,17.99
2022-08-09T05:26:16.131Z,17.96
2022-08-09T05:29:35.438Z,17.93
2022-08-09T05:32:53.228Z,17.93
2022-08-09T05:36:09.661Z,17.94
2022-08-09T05:39:29.553Z,17.97
2022-08-09T05:42:45.119Z,17.98
2022-08-09T05:46:02.464Z,17.94
2022-08-09T05:50:11.072Z,17.95
2022-08-09T05:52:38.726Z,17.94
2022-08-09T05:55:55.283Z,17.96
2022-08-09T05:59:11.552Z,17.97
2022-08-09T06:02:29.702Z,18.00
2022-08-09T06:05:49.995Z,18.01
2022-08-09T06:09:23.167Z,18.02
2022-08-09T06:12:32.890Z,18.05
2022-08-09T06:15:42.475Z,18.10
2022-08-09T06:18:58.907Z,18.22
2022-08-09T06:22:28.992Z,18.34
2022-08-09T06:25:43.338Z,18.48
2022-08-09T06:29:04.979Z,18.65
2022-08-09T06:33:00.900Z,18.86
2022-08-09T06:35:56.573Z,18.99
2022-08-09T06:38:56.938Z,19.16
2022-08-09T06:42:11.619Z,19.32
2022-08-09T06:46:05.909Z,19.47
2022-08-09T06:48:46.240Z,19.60
2022-08-09T06:52:02.177Z,19.82
2022-08-09T06:55:23.195Z,20.01
2022-08-09T07:00:47.654Z,20.14
2022-08-09T07:01:57.677Z,20.34
2022-08-09T07:05:18.194Z,20.43
2022-08-09T07:08:39.591Z,20.47
2022-08-09T07:11:56.130Z,20.55
2022-08-09T07:16:38.506Z,20.60
2022-08-09T07:18:28.817Z,20.74
2022-08-09T07:21:55.750Z,21.03
2022-08-09T07:25:09.838Z,21.33
2022-08-09T07:28:26.169Z,21.56
2022-08-09T07:31:44.951Z,21.82
2022-08-09T07:35:00.419Z,22.00
2022-08-09T07:38:18.450Z,22.08
2022-08-09T07:41:38.951Z,22.26
2022-08-09T07:44:55.414Z,22.32
2022-08-09T07:48:22.565Z,22.42
2022-08-09T07:52:05.618Z,22.57
2022-08-09T07:54:51.421Z,22.88
2022-08-09T07:58:05.347Z,23.11
2022-08-09T08:01:32.721Z,23.30
2022-08-09T08:04:42.589Z,23.63
2022-08-09T08:08:44.650Z,23.85
2022-08-09T08:12:10.260Z,24.10
2022-08-09T08:14:36.810Z,24.74
2022-08-09T08:17:58.149Z,25.20
2022-08-09T08:21:14.251Z,25.42
2022-08-09T08:24:35.368Z,25.95
2022-08-09T08:27:50.365Z,25.77
2022-08-09T08:31:13.681Z,26.11
2022-08-09T08:34:25.417Z,26.03
2022-08-09T08:38:02.017Z,25.88
2022-08-09T08:41:06.213Z,26.01
2022-08-09T08:44:28.832Z,25.80
2022-08-09T08:47:44.884Z,25.29
2022-08-09T08:51:01.428Z,25.12
2022-08-09T08:54:20.545Z,24.98
2022-08-09T08:57:38.004Z,25.37
2022-08-09T09:00:57.011Z,25.74
2022-08-09T09:04:17.540Z,25.99
2022-08-09T09:07:42.892Z,26.32
2022-08-09T09:11:01.859Z,26.46
2022-08-09T09:14:25.821Z,26.45
2022-08-09T09:17:48.524Z,26.29
2022-08-09T09:21:04.178Z,25.60
2022-08-09T09:24:21.709Z,25.47
2022-08-09T09:28:05.699Z,25.87
2022-08-09T09:31:06.813Z,26.08
2022-08-09T09:34:25.284Z,26.14
2022-08-09T09:37:41.936Z,26.22
2022-08-09T09:40:57.886Z,26.05
2022-08-09T09:44:15.861Z,25.87
2022-08-09T09:47:40.756Z,25.28
2022-08-09T09:50:56.933Z,25.59
2022-08-09T09:54:20.668Z,25.78
2022-08-09T09:58:00.598Z,25.91
2022-08-09T10:00:59.042Z,25.60
2022-08-09T10:04:22.749Z,25.60
2022-08-09T10:08:10.641Z,25.88
2022-08-09T10:10:58.903Z,26.06
2022-08-09T10:14:32.949Z,25.89
2022-08-09T10:17:55.949Z,26.02
2022-08-09T10:21:15.385Z,25.84
2022-08-09T10:24:35.996Z,25.35
2022-08-09T10:27:56.076Z,25.45
2022-08-09T10:34:32.902Z,25.59
2022-08-09T10:37:47.939Z,25.73
2022-08-09T10:41:06.474Z,25.74
2022-08-09T10:44:32.219Z,25.81
2022-08-09T10:48:20.265Z,25.82
2022-08-09T10:51:29.972Z,25.73
2022-08-09T10:54:49.968Z,25.80
2022-08-09T10:58:08.704Z,25.78
2022-08-09T11:03:11.987Z,25.78
2022-08-09T11:05:25.286Z,25.82
2022-08-09T11:08:53.332Z,25.82
2022-08-09T11:12:22.211Z,25.55
2022-08-09T11:15:50.773Z,25.35
2022-08-09T11:18:58.103Z,25.05
2022-08-09T11:22:18.721Z,24.86
2022-08-09T11:25:54.726Z,24.71
2022-08-09T11:29:11.971Z,24.61
2022-08-09T11:32:51.118Z,24.85
2022-08-09T11:36:14.682Z,24.78
2022-08-09T11:39:38.084Z,24.77
2022-08-09T11:42:55.098Z,24.89
2022-08-09T11:46:18.481Z,25.06
2022-08-09T11:50:55.163Z,25.17
2022-08-09T11:53:58.515Z,25.04
2022-08-09T11:56:49.297Z,24.66
2022-08-09T12:00:13.025Z,24.51
2022-08-09T12:03:55.121Z,24.24
2022-08-09T12:06:55.721Z,24.12
2022-08-09T12:10:14.450Z,24.15
2022-08-09T12:14:10.160Z,24.14
2022-08-09T12:17:27.849Z,24.11
2022-08-09T12:20:31.652Z,24.10
2022-08-09T12:24:06.551Z,24.07
2022-08-09T12:29:12.149Z,24.06
2022-08-09T12:30:43.819Z,24.11
2022-08-09T12:34:01.721Z,24.03
2022-08-09T12:37:24.014Z,23.95
2022-08-09T12:40:36.498Z,23.94
2022-08-09T12:44:06.149Z,24.01
2022-08-09T12:47:11.990Z,24.04
2022-08-09T12:50:28.929Z,24.00
2022-08-09T12:53:52.745Z,23.94
2022-08-09T12:57:05.151Z,24.01
2022-08-09T13:00:30.418Z,24.03
2022-08-09T13:03:53.805Z,24.03
2022-08-09T13:07:04.415Z,23.92
2022-08-09T13:10:20.957Z,23.94
2022-08-09T13:14:41.457Z,24.02
2022-08-09T13:17:04.236Z,24.03
2022-08-09T13:20:23.314Z,23.99
2022-08-09T13:24:42.009Z,23.96
2022-08-09T13:27:13.170Z,23.97
2022-08-09T13:30:51.051Z,23.99
2022-08-09T13:33:54.324Z,24.02
2022-08-09T13:37:51.367Z,24.02
2022-08-09T13:41:55.414Z,24.03
2022-08-09T13:43:52.122Z,23.95
2022-08-09T13:47:27.453Z,23.89
2022-08-09T13:50:30.506Z,23.83
2022-08-09T13:53:47.605Z,23.73
2022-08-09T13:57:06.429Z,23.71
2022-08-09T14:00:28.737Z,23.67
2022-08-09T14:04:03.610Z,23.69
2022-08-09T14:07:08.413Z,23.71
2022-08-09T14:10:37.563Z,23.75
2022-08-09T14:14:22.681Z,23.81
2022-08-09T14:17:08.209Z,23.80
2022-08-09T14:20:29.252Z,23.80
2022-08-09T14:23:54.525Z,23.82
2022-08-09T14:27:19.684Z,23.83
2022-08-09T14:30:37.369Z,23.84
2022-08-09T14:33:42.911Z,23.83
2022-08-09T14:36:59.382Z,23.81
2022-08-09T14:40:18.666Z,23.78
2022-08-09T14:43:47.514Z,23.78
2022-08-09T14:47:14.766Z,23.78
2022-08-09T14:50:17.390Z,23.78
2022-08-09T14:53:39.044Z,23.77
2022-08-09T14:56:57.315Z,23.80
2022-08-09T15:00:15.319Z,23.79
2022-08-09T15:03:40.666Z,23.76
2022-08-09T15:07:02.309Z,23.72
2022-08-09T15:10:19.365Z,23.69
2022-08-09T15:13:48.193Z,23.67
2022-08-09T15:16:54.666Z,23.64
2022-08-09T15:21:55.401Z,23.63
2022-08-09T15:24:02.030Z,23.62
2022-08-09T15:26:53.386Z,23.62
2022-08-09T15:30:57.554Z,23.65
2022-08-09T15:34:16.239Z,23.59
2022-08-09T15:36:48.499Z,23.56
2022-08-09T15:40:11.472Z,23.57
2022-08-09T15:43:24.995Z,23.56
2022-08-09T15:46:43.661Z,23.51
2022-08-09T15:50:05.211Z,23.51
2022-08-09T15:54:05.417Z,23.45
2022-08-09T15:56:40.962Z,23.41
2022-08-09T15:59:57.322Z,23.39
2022-08-09T16:03:18.839Z,23.34
2022-08-09T16:06:37.677Z,23.31
2022-08-09T16:10:02.468Z,23.29
2022-08-09T16:13:18.620Z,23.30
2022-08-09T16:16:31.876Z,23.31
2022-08-09T16:19:49.467Z,23.31
2022-08-09T16:23:06.413Z,23.27
2022-08-09T16:26:35.507Z,23.24
2022-08-09T16:29:50.450Z,23.21
2022-08-09T16:33:16.728Z,23.18
2022-08-09T16:36:35.630Z,23.14
2022-08-09T16:40:04.991Z,23.13
2022-08-09T16:43:10.782Z,23.12
2022-08-09T16:46:27.502Z,23.12
2022-08-09T16:50:32.627Z,23.10
2022-08-09T16:53:02.272Z,23.10
2022-08-09T16:56:18.739Z,23.06
2022-08-09T16:59:36.989Z,23.06
2022-08-09T17:02:57.205Z,23.03
2022-08-09T17:06:32.073Z,22.98
2022-08-09T17:09:45.627Z,22.94
2022-08-09T17:12:50.168Z,22.91
2022-08-09T17:16:06.189Z,22.87
2022-08-09T17:19:24.120Z,22.83
2022-08-09T17:22:49.725Z,22.81
2022-08-09T17:26:02.041Z,22.78
2022-08-09T17:29:20.700Z,22.75
2022-08-09T17:32:37.804Z,22.72
2022-08-09T17:35:54.589Z,22.69
2022-08-09T17:39:12.213Z,22.66
2022-08-09T17:42:41.531Z,22.63
2022-08-09T17:46:05.874Z,22.59
2022-08-09T17:49:04.658Z,22.56
2022-08-09T17:52:22.243Z,22.53
2022-08-09T17:55:49.323Z,22.49
2022-08-09T17:58:56.646Z,22.45
2022-08-09T18:02:21.482Z,22.24
2022-08-09T18:05:38.871Z,21.99
2022-08-09T18:08:49.834Z,21.88
2022-08-09T18:12:15.277Z,21.83
2022-08-09T18:15:27.540Z,21.84
2022-08-09T18:18:49.289Z,21.86
2022-08-09T18:22:02.543Z,21.85
2022-08-09T18:25:52.798Z,21.84
2022-08-09T18:30:34.486Z,21.81
2022-08-09T18:32:03.524Z,21.77
2022-08-09T18:35:58.255Z,21.73
2022-08-09T18:38:40.831Z,21.70
2022-08-09T18:41:57.343Z,21.66
2022-08-09T18:45:21.563Z,21.64
2022-08-09T18:48:38.002Z,21.59
2022-08-09T18:51:58.065Z,21.57
2022-08-09T18:55:16.014Z,21.56
2022-08-09T18:58:34.145Z,21.52
2022-08-09T19:01:51.518Z,21.49
2022-08-09T19:05:20.490Z,21.25
2022-08-09T19:08:27.930Z,21.13
2022-08-09T19:11:45.566Z,20.87
2022-08-09T19:15:03.300Z,20.61
2022-08-09T19:18:34.042Z,20.35
2022-08-09T19:21:51.906Z,20.14
2022-08-09T19:25:11.403Z,20.00
2022-08-09T19:28:18.309Z,19.85
2022-08-09T19:31:45.006Z,19.75
2022-08-09T19:34:57.965Z,19.61
2022-08-09T19:38:14.127Z,19.42
2022-08-09T19:41:33.369Z,19.26
2022-08-09T19:44:49.266Z,19.16
2022-08-09T19:48:06.762Z,19.07
2022-08-09T19:51:24.791Z,18.95
2022-08-09T19:54:46.757Z,18.81
2022-08-09T19:58:02.896Z,18.73
2022-08-09T20:01:20.593Z,18.67
2022-08-09T20:04:40.885Z,18.58
2022-08-09T20:08:00.532Z,18.48
2022-08-09T20:11:15.485Z,18.41
2022-08-09T20:14:32.823Z,18.34
2022-08-09T20:17:54.526Z,18.21
2022-08-09T20:21:08.559Z,18.13
2022-08-09T20:24:29.738Z,18.10
2022-08-09T20:27:44.833Z,18.12
2022-08-09T20:31:02.627Z,18.09
2022-08-09T20:34:19.450Z,17.99
2022-08-09T20:38:23.529Z,17.93
2022-08-09T20:40:56.846Z,17.90
2022-08-09T20:44:14.880Z,17.81
2022-08-09T20:47:45.372Z,17.74
2022-08-09T20:50:58.195Z,17.68
2022-08-09T20:54:12.400Z,17.64
2022-08-09T20:57:32.107Z,17.62
2022-08-09T21:00:49.554Z,17.58
2022-08-09T21:05:49.565Z,17.54
2022-08-09T21:07:38.797Z,17.48
2022-08-09T21:10:42.968Z,17.34
2022-08-09T21:14:01.024Z,17.25
2022-08-09T21:18:10.941Z,17.22
2022-08-09T21:20:36.052Z,17.24
2022-08-09T21:23:53.845Z,17.18
2022-08-09T21:28:01.261Z,17.14
2022-08-09T21:30:27.523Z,17.06
2022-08-09T21:33:43.476Z,17.01
2022-08-09T21:36:59.585Z,16.93
2022-08-09T21:40:22.151Z,16.89
2022-08-09T21:43:56.863Z,16.79
2022-08-09T21:46:54.305Z,16.76
2022-08-09T21:50:17.343Z,16.75
2022-08-09T21:53:40.842Z,16.72
2022-08-09T21:56:54.601Z,16.68
2022-08-09T22:00:10.425Z,16.61
2022-08-09T22:03:29.528Z,16.57
2022-08-09T22:06:55.352Z,16.49
2022-08-09T22:10:05.320Z,16.40
2022-08-09T22:13:21.481Z,16.37
2022-08-09T22:16:37.787Z,16.32
2022-08-09T22:19:59.743Z,16.31
2022-08-09T22:23:13.396Z,16.25
2022-08-09T22:26:35.415Z,16.24
2022-08-09T22:29:50.162Z,16.22
2022-08-09T22:33:09.658Z,16.14
2022-08-09T22:36:24.302Z,16.09
2022-08-09T22:39:57.636Z,16.05
2022-08-09T22:42:58.447Z,16.04
2022-08-09T22:48:12.784Z,16.03
2022-08-09T22:49:36.755Z,15.96
2022-08-09T22:52:57.760Z,15.91
2022-08-09T22:56:30.564Z,15.85
2022-08-09T22:59:57.638Z,15.84
2022-08-09T23:02:47.710Z,15.78
2022-08-09T23:06:03.978Z,15.79
2022-08-09T23:09:21.010Z,15.72
2022-08-09T23:12:37.206Z,15.68
2022-08-09T23:16:02.823Z,15.68
2022-08-09T23:19:13.250Z,15.63
2022-08-09T23:22:29.374Z,15.59
2022-08-09T23:25:45.872Z,15.55
2022-08-09T23:29:02.003Z,15.56
2022-08-09T23:32:18.350Z,15.51
2022-08-09T23:36:04.993Z,15.49
2022-08-09T23:38:52.582Z,15.37
2022-08-09T23:42:09.142Z,15.39
2022-08-09T23:45:37.300Z,15.31
2022-08-09T23:48:43.302Z,15.28
2022-08-09T23:52:01.021Z,15.27
2022-08-09T23:55:18.042Z,15.24
2022-08-09T23:58:34.238Z,15.19
